sensor_id;sensor_type;location;lat;lon;timestamp;temperature;humidity
8231;DHT22;4156;50.908;6.974;2022-12-18T00:00:53;-2.50;99.90
8231;DHT22;4156;50.908;6.974;2022-12-18T00:03:19;-2.50;99.90
8231;DHT22;4156;50.908;6.974;2022-12-18T00:05:49;-2.50;99.90
8231;DHT22;4156;50.908;6.974;2022-12-18T00:08:15;-2.50;99.90
8231;DHT22;4156;50.908;6.974;2022-12-18T00:10:40;-2.60;99.90
8231;DHT22;4156;50.908;6.974;2022-12-18T00:13:06;-2.60;99.90
8231;DHT22;4156;50.908;6.974;2022-12-18T00:15:37;-2.50;99.90
8231;DHT22;4156;50.908;6.974;2022-12-18T00:18:03;-2.50;99.90
8231;DHT22;4156;50.908;6.974;2022-12-18T00:20:28;-2.50;99.90
8231;DHT22;4156;50.908;6.974;2022-12-18T00:22:55;-2.50;99.90
8231;DHT22;4156;50.908;6.974;2022-12-18T00:25:21;-2.50;99.90
8231;DHT22;4156;50.908;6.974;2022-12-18T00:27:47;-2.50;99.90
8231;DHT22;4156;50.908;6.974;2022-12-18T00:30:13;-2.50;99.90
8231;DHT22;4156;50.908;6.974;2022-12-18T00:32:39;-2.50;99.90
8231;DHT22;4156;50.908;6.974;2022-12-18T00:35:05;-2.50;99.90
8231;DHT22;4156;50.908;6.974;2022-12-18T00:37:31;-2.50;99.90
8231;DHT22;4156;50.908;6.974;2022-12-18T00:39:58;-2.50;99.90
8231;DHT22;4156;50.908;6.974;2022-12-18T00:42:23;-2.60;99.90
8231;DHT22;4156;50.908;6.974;2022-12-18T00:45:07;-2.60;99.90
8231;DHT22;4156;50.908;6.974;2022-12-18T00:47:33;-2.60;99.90
8231;DHT22;4156;50.908;6.974;2022-12-18T00:49:59;-2.60;99.90
8231;DHT22;4156;50.908;6.974;2022-12-18T00:52:25;-2.60;99.90
8231;DHT22;4156;50.908;6.974;2022-12-18T00:54:50;-2.60;99.90
8231;DHT22;4156;50.908;6.974;2022-12-18T00:57:16;-2.60;99.90
8231;DHT22;4156;50.908;6.974;2022-12-18T00:59:41;-2.60;99.90
8231;DHT22;4156;50.908;6.974;2022-12-18T01:02:07;-2.60;99.90
8231;DHT22;4156;50.908;6.974;2022-12-18T01:04:32;-2.60;99.90
8231;DHT22;4156;50.908;6.974;2022-12-18T01:06:58;-2.60;99.90
8231;DHT22;4156;50.908;6.974;2022-12-18T01:09:24;-2.70;99.90
8231;DHT22;4156;50.908;6.974;2022-12-18T01:11:49;-2.70;99.90
8231;DHT22;4156;50.908;6.974;2022-12-18T01:14:15;-2.70;99.90
8231;DHT22;4156;50.908;6.974;2022-12-18T01:16:40;-2.70;99.90
8231;DHT22;4156;50.908;6.974;2022-12-18T01:19:06;-2.60;99.90
8231;DHT22;4156;50.908;6.974;2022-12-18T01:21:32;-2.70;99.90
8231;DHT22;4156;50.908;6.974;2022-12-18T01:23:57;-2.70;99.90
8231;DHT22;4156;50.908;6.974;2022-12-18T01:26:24;-2.70;99.90
8231;DHT22;4156;50.908;6.974;2022-12-18T01:28:49;-2.70;99.90
8231;DHT22;4156;50.908;6.974;2022-12-18T01:31:21;-2.70;99.90
8231;DHT22;4156;50.908;6.974;2022-12-18T01:33:47;-2.80;99.90
8231;DHT22;4156;50.908;6.974;2022-12-18T01:38:43;-2.80;99.90
8231;DHT22;4156;50.908;6.974;2022-12-18T01:41:09;-2.80;99.90
8231;DHT22;4156;50.908;6.974;2022-12-18T01:43:55;-2.80;99.90
8231;DHT22;4156;50.908;6.974;2022-12-18T01:46:26;-2.80;99.90
8231;DHT22;4156;50.908;6.974;2022-12-18T01:49:00;-2.80;99.90
8231;DHT22;4156;50.908;6.974;2022-12-18T01:51:27;-2.80;99.90
8231;DHT22;4156;50.908;6.974;2022-12-18T01:53:54;-2.80;99.90
8231;DHT22;4156;50.908;6.974;2022-12-18T01:56:21;-2.80;99.90
8231;DHT22;4156;50.908;6.974;2022-12-18T01:59:05;-2.80;99.90
8231;DHT22;4156;50.908;6.974;2022-12-18T02:01:33;-2.80;99.90
8231;DHT22;4156;50.908;6.974;2022-12-18T02:04:23;-2.80;99.90
8231;DHT22;4156;50.908;6.974;2022-12-18T02:10:03;-2.90;99.90
8231;DHT22;4156;50.908;6.974;2022-12-18T02:12:48;-2.80;99.90
8231;DHT22;4156;50.908;6.974;2022-12-18T02:15:23;-2.80;99.90
8231;DHT22;4156;50.908;6.974;2022-12-18T02:17:55;-2.80;99.90
8231;DHT22;4156;50.908;6.974;2022-12-18T02:20:36;-2.80;99.90
8231;DHT22;4156;50.908;6.974;2022-12-18T02:26:32;-2.80;99.90
8231;DHT22;4156;50.908;6.974;2022-12-18T02:29:04;-2.80;99.90
8231;DHT22;4156;50.908;6.974;2022-12-18T02:31:36;-2.80;99.90
8231;DHT22;4156;50.908;6.974;2022-12-18T02:34:05;-2.80;99.90
8231;DHT22;4156;50.908;6.974;2022-12-18T02:36:33;-2.80;99.90
8231;DHT22;4156;50.908;6.974;2022-12-18T02:39:01;-2.80;99.90
8231;DHT22;4156;50.908;6.974;2022-12-18T02:41:28;-2.80;99.90
8231;DHT22;4156;50.908;6.974;2022-12-18T02:43:56;-2.80;99.90
8231;DHT22;4156;50.908;6.974;2022-12-18T02:46:27;-2.80;99.90
8231;DHT22;4156;50.908;6.974;2022-12-18T02:49:03;-2.80;99.90
8231;DHT22;4156;50.908;6.974;2022-12-18T02:51:42;-2.80;99.90
8231;DHT22;4156;50.908;6.974;2022-12-18T02:56:54;-2.80;99.90
8231;DHT22;4156;50.908;6.974;2022-12-18T02:59:28;-2.90;99.90
8231;DHT22;4156;50.908;6.974;2022-12-18T03:02:01;-2.90;99.90
8231;DHT22;4156;50.908;6.974;2022-12-18T03:04:38;-2.90;99.90
8231;DHT22;4156;50.908;6.974;2022-12-18T03:07:09;-2.90;99.90
8231;DHT22;4156;50.908;6.974;2022-12-18T03:09:39;-2.90;99.90
8231;DHT22;4156;50.908;6.974;2022-12-18T03:12:29;-2.90;99.90
8231;DHT22;4156;50.908;6.974;2022-12-18T03:15:03;-2.90;99.90
8231;DHT22;4156;50.908;6.974;2022-12-18T03:17:31;-2.90;99.90
8231;DHT22;4156;50.908;6.974;2022-12-18T03:20:03;-3.00;99.90
8231;DHT22;4156;50.908;6.974;2022-12-18T03:22:32;-3.00;99.90
8231;DHT22;4156;50.908;6.974;2022-12-18T03:25:01;-3.00;99.90
8231;DHT22;4156;50.908;6.974;2022-12-18T03:27:29;-3.10;99.90
8231;DHT22;4156;50.908;6.974;2022-12-18T03:30:08;-3.00;99.90
8231;DHT22;4156;50.908;6.974;2022-12-18T03:32:43;-3.00;99.90
8231;DHT22;4156;50.908;6.974;2022-12-18T03:35:13;-3.10;99.90
8231;DHT22;4156;50.908;6.974;2022-12-18T03:37:39;-3.00;99.90
8231;DHT22;4156;50.908;6.974;2022-12-18T03:40:05;-3.00;99.90
8231;DHT22;4156;50.908;6.974;2022-12-18T03:42:53;-3.10;99.90
8231;DHT22;4156;50.908;6.974;2022-12-18T03:45:43;-3.00;99.90
8231;DHT22;4156;50.908;6.974;2022-12-18T03:48:27;-3.10;99.90
8231;DHT22;4156;50.908;6.974;2022-12-18T03:51:00;-3.00;99.90
8231;DHT22;4156;50.908;6.974;2022-12-18T03:53:42;-3.10;99.90
8231;DHT22;4156;50.908;6.974;2022-12-18T03:56:13;-3.00;99.90
8231;DHT22;4156;50.908;6.974;2022-12-18T03:58:41;-3.10;99.90
8231;DHT22;4156;50.908;6.974;2022-12-18T04:01:09;-3.10;99.90
8231;DHT22;4156;50.908;6.974;2022-12-18T04:03:36;-3.10;99.90
8231;DHT22;4156;50.908;6.974;2022-12-18T04:06:03;-3.10;99.90
8231;DHT22;4156;50.908;6.974;2022-12-18T04:08:30;-3.10;99.90
8231;DHT22;4156;50.908;6.974;2022-12-18T04:10:56;-3.10;99.90
8231;DHT22;4156;50.908;6.974;2022-12-18T04:13:23;-3.20;99.90
8231;DHT22;4156;50.908;6.974;2022-12-18T04:15:48;-3.10;99.90
8231;DHT22;4156;50.908;6.974;2022-12-18T04:18:14;-3.10;99.90
8231;DHT22;4156;50.908;6.974;2022-12-18T04:20:39;-3.20;99.90
8231;DHT22;4156;50.908;6.974;2022-12-18T04:23:05;-3.20;99.90
8231;DHT22;4156;50.908;6.974;2022-12-18T04:25:30;-3.20;99.90
8231;DHT22;4156;50.908;6.974;2022-12-18T04:27:56;-3.20;99.90
8231;DHT22;4156;50.908;6.974;2022-12-18T04:30:21;-3.30;99.90
8231;DHT22;4156;50.908;6.974;2022-12-18T04:32:47;-3.30;99.90
8231;DHT22;4156;50.908;6.974;2022-12-18T04:35:12;-3.30;99.90
8231;DHT22;4156;50.908;6.974;2022-12-18T04:37:38;-3.30;99.90
8231;DHT22;4156;50.908;6.974;2022-12-18T04:40:04;-3.30;99.90
8231;DHT22;4156;50.908;6.974;2022-12-18T04:42:30;-3.30;99.90
8231;DHT22;4156;50.908;6.974;2022-12-18T04:44:55;-3.30;99.90
8231;DHT22;4156;50.908;6.974;2022-12-18T04:47:21;-3.30;99.90
8231;DHT22;4156;50.908;6.974;2022-12-18T04:49:46;-3.40;99.90
8231;DHT22;4156;50.908;6.974;2022-12-18T04:52:12;-3.40;99.90
8231;DHT22;4156;50.908;6.974;2022-12-18T04:54:37;-3.40;99.90
8231;DHT22;4156;50.908;6.974;2022-12-18T04:57:03;-3.40;99.90
8231;DHT22;4156;50.908;6.974;2022-12-18T04:59:28;-3.40;99.90
8231;DHT22;4156;50.908;6.974;2022-12-18T05:01:54;-3.50;99.90
8231;DHT22;4156;50.908;6.974;2022-12-18T05:04:19;-3.50;99.90
8231;DHT22;4156;50.908;6.974;2022-12-18T05:06:45;-3.40;99.90
8231;DHT22;4156;50.908;6.974;2022-12-18T05:09:10;-3.50;99.90
8231;DHT22;4156;50.908;6.974;2022-12-18T05:11:36;-3.50;99.90
8231;DHT22;4156;50.908;6.974;2022-12-18T05:14:01;-3.50;99.90
8231;DHT22;4156;50.908;6.974;2022-12-18T05:16:27;-3.50;99.90
8231;DHT22;4156;50.908;6.974;2022-12-18T05:18:52;-3.50;99.90
8231;DHT22;4156;50.908;6.974;2022-12-18T05:21:18;-3.50;99.90
8231;DHT22;4156;50.908;6.974;2022-12-18T05:23:44;-3.50;99.90
8231;DHT22;4156;50.908;6.974;2022-12-18T05:26:17;-3.70;99.90
8231;DHT22;4156;50.908;6.974;2022-12-18T05:28:43;-3.40;99.90
8231;DHT22;4156;50.908;6.974;2022-12-18T05:31:09;-3.40;99.90
8231;DHT22;4156;50.908;6.974;2022-12-18T05:33:35;-3.50;99.90
8231;DHT22;4156;50.908;6.974;2022-12-18T05:36:05;-3.50;99.90
8231;DHT22;4156;50.908;6.974;2022-12-18T05:38:33;-3.40;99.90
8231;DHT22;4156;50.908;6.974;2022-12-18T05:40:59;-3.40;99.90
8231;DHT22;4156;50.908;6.974;2022-12-18T05:43:25;-3.40;99.90
8231;DHT22;4156;50.908;6.974;2022-12-18T05:45:52;-3.50;99.90
8231;DHT22;4156;50.908;6.974;2022-12-18T05:48:18;-3.50;99.90
8231;DHT22;4156;50.908;6.974;2022-12-18T05:50:45;-3.40;99.90
8231;DHT22;4156;50.908;6.974;2022-12-18T05:53:12;-3.40;99.90
8231;DHT22;4156;50.908;6.974;2022-12-18T05:55:39;-3.40;99.90
8231;DHT22;4156;50.908;6.974;2022-12-18T05:58:07;-3.40;99.90
8231;DHT22;4156;50.908;6.974;2022-12-18T06:00:36;-3.40;99.90
8231;DHT22;4156;50.908;6.974;2022-12-18T06:03:05;-3.40;99.90
8231;DHT22;4156;50.908;6.974;2022-12-18T06:05:35;-3.40;99.90
8231;DHT22;4156;50.908;6.974;2022-12-18T06:08:02;-3.40;99.90
8231;DHT22;4156;50.908;6.974;2022-12-18T06:10:27;-3.50;99.90
8231;DHT22;4156;50.908;6.974;2022-12-18T06:12:53;-3.40;99.90
8231;DHT22;4156;50.908;6.974;2022-12-18T06:15:18;-3.50;99.90
8231;DHT22;4156;50.908;6.974;2022-12-18T06:17:43;-3.40;99.90
8231;DHT22;4156;50.908;6.974;2022-12-18T06:20:09;-3.50;99.90
8231;DHT22;4156;50.908;6.974;2022-12-18T06:22:35;-3.50;99.90
8231;DHT22;4156;50.908;6.974;2022-12-18T06:25:00;-3.50;99.90
8231;DHT22;4156;50.908;6.974;2022-12-18T06:27:26;-3.50;99.90
8231;DHT22;4156;50.908;6.974;2022-12-18T06:29:52;-3.60;99.90
8231;DHT22;4156;50.908;6.974;2022-12-18T06:32:17;-3.60;99.90
8231;DHT22;4156;50.908;6.974;2022-12-18T06:34:43;-3.60;99.90
8231;DHT22;4156;50.908;6.974;2022-12-18T06:37:08;-3.60;99.90
8231;DHT22;4156;50.908;6.974;2022-12-18T06:39:33;-3.60;99.90
8231;DHT22;4156;50.908;6.974;2022-12-18T06:41:59;-3.60;99.90
8231;DHT22;4156;50.908;6.974;2022-12-18T06:44:24;-3.60;99.90
8231;DHT22;4156;50.908;6.974;2022-12-18T06:46:50;-3.60;99.90
8231;DHT22;4156;50.908;6.974;2022-12-18T06:49:15;-3.60;99.90
8231;DHT22;4156;50.908;6.974;2022-12-18T06:51:41;-3.60;99.90
8231;DHT22;4156;50.908;6.974;2022-12-18T06:54:07;-3.60;99.90
8231;DHT22;4156;50.908;6.974;2022-12-18T06:56:33;-3.60;99.90
8231;DHT22;4156;50.908;6.974;2022-12-18T06:58:58;-3.60;99.90
8231;DHT22;4156;50.908;6.974;2022-12-18T07:01:24;-3.60;99.90
8231;DHT22;4156;50.908;6.974;2022-12-18T07:03:54;-3.60;99.90
8231;DHT22;4156;50.908;6.974;2022-12-18T07:06:21;-3.70;99.90
8231;DHT22;4156;50.908;6.974;2022-12-18T07:08:48;-3.70;99.90
8231;DHT22;4156;50.908;6.974;2022-12-18T07:11:14;-3.70;99.90
8231;DHT22;4156;50.908;6.974;2022-12-18T07:13:40;-3.70;99.90
8231;DHT22;4156;50.908;6.974;2022-12-18T07:16:08;-3.70;99.90
8231;DHT22;4156;50.908;6.974;2022-12-18T07:18:34;-3.80;99.90
8231;DHT22;4156;50.908;6.974;2022-12-18T07:21:07;-3.80;99.90
8231;DHT22;4156;50.908;6.974;2022-12-18T07:23:34;-3.70;99.90
8231;DHT22;4156;50.908;6.974;2022-12-18T07:26:01;-3.70;99.90
8231;DHT22;4156;50.908;6.974;2022-12-18T07:28:27;-3.70;99.90
8231;DHT22;4156;50.908;6.974;2022-12-18T07:30:53;-3.70;99.90
8231;DHT22;4156;50.908;6.974;2022-12-18T07:33:19;-3.70;99.90
8231;DHT22;4156;50.908;6.974;2022-12-18T07:35:44;-3.70;99.90
8231;DHT22;4156;50.908;6.974;2022-12-18T07:38:10;-3.70;99.90
8231;DHT22;4156;50.908;6.974;2022-12-18T07:40:35;-3.70;99.90
8231;DHT22;4156;50.908;6.974;2022-12-18T07:43:01;-3.70;99.90
8231;DHT22;4156;50.908;6.974;2022-12-18T07:45:26;-3.70;99.90
8231;DHT22;4156;50.908;6.974;2022-12-18T07:47:52;-3.70;99.90
8231;DHT22;4156;50.908;6.974;2022-12-18T07:50:17;-3.70;99.90
8231;DHT22;4156;50.908;6.974;2022-12-18T07:52:43;-3.70;99.90
8231;DHT22;4156;50.908;6.974;2022-12-18T07:55:08;-3.70;99.90
8231;DHT22;4156;50.908;6.974;2022-12-18T07:57:34;-3.70;99.90
8231;DHT22;4156;50.908;6.974;2022-12-18T07:59:59;-3.70;99.90
8231;DHT22;4156;50.908;6.974;2022-12-18T08:02:25;-3.80;99.90
8231;DHT22;4156;50.908;6.974;2022-12-18T08:04:50;-3.80;99.90
8231;DHT22;4156;50.908;6.974;2022-12-18T08:07:16;-3.70;99.90
8231;DHT22;4156;50.908;6.974;2022-12-18T08:09:41;-3.70;99.90
8231;DHT22;4156;50.908;6.974;2022-12-18T08:12:07;-3.70;99.90
8231;DHT22;4156;50.908;6.974;2022-12-18T08:14:32;-3.60;99.90
8231;DHT22;4156;50.908;6.974;2022-12-18T08:16:58;-3.70;99.90
8231;DHT22;4156;50.908;6.974;2022-12-18T08:19:23;-3.60;99.90
8231;DHT22;4156;50.908;6.974;2022-12-18T08:21:49;-3.70;99.90
8231;DHT22;4156;50.908;6.974;2022-12-18T08:24:14;-3.60;99.90
8231;DHT22;4156;50.908;6.974;2022-12-18T08:26:40;-3.60;99.90
8231;DHT22;4156;50.908;6.974;2022-12-18T08:29:05;-3.60;99.90
8231;DHT22;4156;50.908;6.974;2022-12-18T08:31:31;-3.60;99.90
8231;DHT22;4156;50.908;6.974;2022-12-18T08:33:57;-3.60;99.90
8231;DHT22;4156;50.908;6.974;2022-12-18T08:36:23;-3.60;99.90
8231;DHT22;4156;50.908;6.974;2022-12-18T08:38:49;-3.60;99.90
8231;DHT22;4156;50.908;6.974;2022-12-18T08:41:16;-3.60;99.90
8231;DHT22;4156;50.908;6.974;2022-12-18T08:43:42;-3.60;99.90
8231;DHT22;4156;50.908;6.974;2022-12-18T08:46:27;-3.50;99.90
8231;DHT22;4156;50.908;6.974;2022-12-18T08:48:56;-3.50;99.90
8231;DHT22;4156;50.908;6.974;2022-12-18T08:51:21;-3.50;99.90
8231;DHT22;4156;50.908;6.974;2022-12-18T08:53:47;-3.50;99.90
8231;DHT22;4156;50.908;6.974;2022-12-18T08:56:14;-3.50;99.90
8231;DHT22;4156;50.908;6.974;2022-12-18T08:58:40;-3.50;99.90
8231;DHT22;4156;50.908;6.974;2022-12-18T09:01:08;-3.40;99.90
8231;DHT22;4156;50.908;6.974;2022-12-18T09:03:35;-3.40;99.90
8231;DHT22;4156;50.908;6.974;2022-12-18T09:06:00;-3.40;99.90
8231;DHT22;4156;50.908;6.974;2022-12-18T09:08:26;-3.30;99.90
8231;DHT22;4156;50.908;6.974;2022-12-18T09:10:52;-3.30;99.90
8231;DHT22;4156;50.908;6.974;2022-12-18T09:13:18;-3.30;99.90
8231;DHT22;4156;50.908;6.974;2022-12-18T09:15:52;-3.30;99.90
8231;DHT22;4156;50.908;6.974;2022-12-18T09:18:19;-3.30;99.90
8231;DHT22;4156;50.908;6.974;2022-12-18T09:20:46;-3.20;99.90
8231;DHT22;4156;50.908;6.974;2022-12-18T09:23:12;-3.20;99.90
8231;DHT22;4156;50.908;6.974;2022-12-18T09:25:38;-3.10;99.90
8231;DHT22;4156;50.908;6.974;2022-12-18T09:28:12;-3.10;99.90
8231;DHT22;4156;50.908;6.974;2022-12-18T09:30:39;-3.00;99.90
8231;DHT22;4156;50.908;6.974;2022-12-18T09:33:05;-3.00;99.90
8231;DHT22;4156;50.908;6.974;2022-12-18T09:35:30;-3.00;99.90
8231;DHT22;4156;50.908;6.974;2022-12-18T09:37:56;-3.00;99.90
8231;DHT22;4156;50.908;6.974;2022-12-18T09:40:24;-2.90;99.90
8231;DHT22;4156;50.908;6.974;2022-12-18T09:42:57;-2.90;99.90
8231;DHT22;4156;50.908;6.974;2022-12-18T09:45:24;-2.90;99.90
8231;DHT22;4156;50.908;6.974;2022-12-18T09:47:52;-2.80;99.90
8231;DHT22;4156;50.908;6.974;2022-12-18T09:50:28;-2.80;99.90
8231;DHT22;4156;50.908;6.974;2022-12-18T09:52:57;-2.80;99.90
8231;DHT22;4156;50.908;6.974;2022-12-18T09:55:33;-2.80;99.90
8231;DHT22;4156;50.908;6.974;2022-12-18T10:00:52;-2.70;99.90
8231;DHT22;4156;50.908;6.974;2022-12-18T10:03:18;-2.70;99.90
8231;DHT22;4156;50.908;6.974;2022-12-18T10:08:46;-2.70;99.90
8231;DHT22;4156;50.908;6.974;2022-12-18T10:11:40;-2.70;99.90
8231;DHT22;4156;50.908;6.974;2022-12-18T10:14:30;-2.60;99.90
8231;DHT22;4156;50.908;6.974;2022-12-18T10:20:13;-2.60;99.90
8231;DHT22;4156;50.908;6.974;2022-12-18T10:25:28;-2.50;99.90
8231;DHT22;4156;50.908;6.974;2022-12-18T10:28:00;-2.50;99.90
8231;DHT22;4156;50.908;6.974;2022-12-18T10:30:32;-2.40;99.90
8231;DHT22;4156;50.908;6.974;2022-12-18T10:33:01;-2.40;99.90
8231;DHT22;4156;50.908;6.974;2022-12-18T10:35:27;-2.40;99.90
8231;DHT22;4156;50.908;6.974;2022-12-18T10:40:28;-2.30;99.90
8231;DHT22;4156;50.908;6.974;2022-12-18T10:43:13;-2.30;99.90
8231;DHT22;4156;50.908;6.974;2022-12-18T10:45:40;-2.30;99.90
8231;DHT22;4156;50.908;6.974;2022-12-18T10:48:18;-2.30;99.90
8231;DHT22;4156;50.908;6.974;2022-12-18T10:50:48;-2.20;99.90
8231;DHT22;4156;50.908;6.974;2022-12-18T10:53:24;-2.20;99.90
8231;DHT22;4156;50.908;6.974;2022-12-18T10:55:53;-2.20;99.90
8231;DHT22;4156;50.908;6.974;2022-12-18T11:08:32;-2.00;99.90
8231;DHT22;4156;50.908;6.974;2022-12-18T11:10:58;-2.00;99.90
8231;DHT22;4156;50.908;6.974;2022-12-18T11:13:25;-1.90;99.90
8231;DHT22;4156;50.908;6.974;2022-12-18T11:15:52;-2.00;99.90
8231;DHT22;4156;50.908;6.974;2022-12-18T11:18:32;-1.90;99.90
8231;DHT22;4156;50.908;6.974;2022-12-18T11:21:09;-1.90;99.90
8231;DHT22;4156;50.908;6.974;2022-12-18T11:23:35;-1.90;99.90
8231;DHT22;4156;50.908;6.974;2022-12-18T11:26:04;-1.90;99.90
8231;DHT22;4156;50.908;6.974;2022-12-18T11:31:18;-1.80;99.90
8231;DHT22;4156;50.908;6.974;2022-12-18T11:34:09;-1.80;99.90
8231;DHT22;4156;50.908;6.974;2022-12-18T11:36:41;-1.70;99.90
8231;DHT22;4156;50.908;6.974;2022-12-18T11:42:14;-1.70;99.90
8231;DHT22;4156;50.908;6.974;2022-12-18T11:44:50;-1.70;99.90
8231;DHT22;4156;50.908;6.974;2022-12-18T11:47:38;-1.70;99.90
8231;DHT22;4156;50.908;6.974;2022-12-18T11:50:14;-1.70;99.90
8231;DHT22;4156;50.908;6.974;2022-12-18T11:52:41;-1.70;99.90
8231;DHT22;4156;50.908;6.974;2022-12-18T11:55:16;-1.60;99.90
8231;DHT22;4156;50.908;6.974;2022-12-18T12:00:49;-1.60;99.90
8231;DHT22;4156;50.908;6.974;2022-12-18T12:15:18;-1.60;99.90
8231;DHT22;4156;50.908;6.974;2022-12-18T12:17:55;-1.60;99.90
8231;DHT22;4156;50.908;6.974;2022-12-18T12:20:27;-1.50;99.90
8231;DHT22;4156;50.908;6.974;2022-12-18T12:25:52;-1.50;99.90
8231;DHT22;4156;50.908;6.974;2022-12-18T12:28:44;-1.50;99.90
8231;DHT22;4156;50.908;6.974;2022-12-18T12:39:06;-1.40;99.90
8231;DHT22;4156;50.908;6.974;2022-12-18T12:41:34;-1.40;99.90
8231;DHT22;4156;50.908;6.974;2022-12-18T12:44:24;-1.40;99.90
8231;DHT22;4156;50.908;6.974;2022-12-18T12:46:52;-1.40;99.90
8231;DHT22;4156;50.908;6.974;2022-12-18T12:49:21;-1.40;99.90
8231;DHT22;4156;50.908;6.974;2022-12-18T12:52:17;-1.30;99.90
8231;DHT22;4156;50.908;6.974;2022-12-18T12:54:48;-1.30;99.90
8231;DHT22;4156;50.908;6.974;2022-12-18T12:57:23;-1.30;99.90
8231;DHT22;4156;50.908;6.974;2022-12-18T12:59:58;-1.30;99.90
8231;DHT22;4156;50.908;6.974;2022-12-18T13:08:10;-1.20;99.90
8231;DHT22;4156;50.908;6.974;2022-12-18T13:10:39;-1.20;99.90
8231;DHT22;4156;50.908;6.974;2022-12-18T13:13:08;-1.20;99.90
8231;DHT22;4156;50.908;6.974;2022-12-18T13:15:46;-1.20;99.90
8231;DHT22;4156;50.908;6.974;2022-12-18T13:18:16;-1.20;99.90
8231;DHT22;4156;50.908;6.974;2022-12-18T13:25:49;-1.10;99.90
8231;DHT22;4156;50.908;6.974;2022-12-18T13:28:20;-1.10;99.90
8231;DHT22;4156;50.908;6.974;2022-12-18T13:30:56;-1.10;99.90
8231;DHT22;4156;50.908;6.974;2022-12-18T13:38:39;-1.10;99.90
8231;DHT22;4156;50.908;6.974;2022-12-18T13:43:47;-1.00;99.90
8231;DHT22;4156;50.908;6.974;2022-12-18T13:46:45;-1.00;99.90
8231;DHT22;4156;50.908;6.974;2022-12-18T13:51:42;-1.00;99.90
8231;DHT22;4156;50.908;6.974;2022-12-18T13:54:18;-1.00;99.90
8231;DHT22;4156;50.908;6.974;2022-12-18T13:56:47;-1.00;99.90
8231;DHT22;4156;50.908;6.974;2022-12-18T13:59:21;-1.00;99.90
8231;DHT22;4156;50.908;6.974;2022-12-18T14:01:51;-1.00;99.90
8231;DHT22;4156;50.908;6.974;2022-12-18T14:04:26;-0.90;99.90
8231;DHT22;4156;50.908;6.974;2022-12-18T14:07:42;-0.90;99.90
8231;DHT22;4156;50.908;6.974;2022-12-18T14:09:46;-0.90;99.90
8231;DHT22;4156;50.908;6.974;2022-12-18T14:12:28;-0.90;99.90
8231;DHT22;4156;50.908;6.974;2022-12-18T14:20:43;-0.90;99.90
8231;DHT22;4156;50.908;6.974;2022-12-18T14:23:31;-0.80;99.90
8231;DHT22;4156;50.908;6.974;2022-12-18T14:25:58;-0.80;99.90
8231;DHT22;4156;50.908;6.974;2022-12-18T14:28:23;-0.80;99.90
8231;DHT22;4156;50.908;6.974;2022-12-18T14:30:50;-0.80;99.90
8231;DHT22;4156;50.908;6.974;2022-12-18T14:33:21;-0.80;99.90
8231;DHT22;4156;50.908;6.974;2022-12-18T14:35:59;-0.80;99.90
8231;DHT22;4156;50.908;6.974;2022-12-18T14:41:15;-0.80;99.90
8231;DHT22;4156;50.908;6.974;2022-12-18T14:43:43;-0.80;99.90
8231;DHT22;4156;50.908;6.974;2022-12-18T14:46:39;-0.80;99.90
8231;DHT22;4156;50.908;6.974;2022-12-18T14:49:23;-0.80;99.90
8231;DHT22;4156;50.908;6.974;2022-12-18T14:51:57;-0.80;99.90
8231;DHT22;4156;50.908;6.974;2022-12-18T14:54:25;-0.80;99.90
8231;DHT22;4156;50.908;6.974;2022-12-18T14:57:05;-0.80;99.90
8231;DHT22;4156;50.908;6.974;2022-12-18T14:59:31;-0.80;99.90
8231;DHT22;4156;50.908;6.974;2022-12-18T15:02:04;-0.80;99.90
8231;DHT22;4156;50.908;6.974;2022-12-18T15:04:36;-0.80;99.90
8231;DHT22;4156;50.908;6.974;2022-12-18T15:07:21;-0.80;99.90
8231;DHT22;4156;50.908;6.974;2022-12-18T15:10:14;-0.80;99.90
8231;DHT22;4156;50.908;6.974;2022-12-18T15:12:45;-0.70;99.90
8231;DHT22;4156;50.908;6.974;2022-12-18T15:20:40;-0.80;99.90
8231;DHT22;4156;50.908;6.974;2022-12-18T15:26:00;-0.70;99.90
8231;DHT22;4156;50.908;6.974;2022-12-18T15:28:36;0.00;99.90
8231;DHT22;4156;50.908;6.974;2022-12-18T15:31:21;-0.70;99.90
8231;DHT22;4156;50.908;6.974;2022-12-18T15:36:22;-0.70;99.90
8231;DHT22;4156;50.908;6.974;2022-12-18T15:38:52;-0.80;99.90
8231;DHT22;4156;50.908;6.974;2022-12-18T15:41:20;-0.80;99.90
8231;DHT22;4156;50.908;6.974;2022-12-18T15:43:48;-0.70;99.90
8231;DHT22;4156;50.908;6.974;2022-12-18T15:46:15;-0.80;99.90
8231;DHT22;4156;50.908;6.974;2022-12-18T15:48:43;-0.70;99.90
8231;DHT22;4156;50.908;6.974;2022-12-18T15:51:16;-0.70;99.90
8231;DHT22;4156;50.908;6.974;2022-12-18T15:53:42;-0.70;99.90
8231;DHT22;4156;50.908;6.974;2022-12-18T15:56:12;-0.70;99.90
8231;DHT22;4156;50.908;6.974;2022-12-18T15:58:56;-0.70;99.90
8231;DHT22;4156;50.908;6.974;2022-12-18T16:01:30;-0.70;99.90
8231;DHT22;4156;50.908;6.974;2022-12-18T16:03:56;-0.70;99.90
8231;DHT22;4156;50.908;6.974;2022-12-18T16:06:22;-0.70;99.90
8231;DHT22;4156;50.908;6.974;2022-12-18T16:08:48;-0.70;99.90
8231;DHT22;4156;50.908;6.974;2022-12-18T16:11:27;-0.70;99.90
8231;DHT22;4156;50.908;6.974;2022-12-18T16:16:49;-0.70;99.90
8231;DHT22;4156;50.908;6.974;2022-12-18T16:19:14;-0.70;99.90
8231;DHT22;4156;50.908;6.974;2022-12-18T16:21:40;-0.70;99.90
8231;DHT22;4156;50.908;6.974;2022-12-18T16:24:16;-0.70;99.90
8231;DHT22;4156;50.908;6.974;2022-12-18T16:26:42;-0.70;99.90
8231;DHT22;4156;50.908;6.974;2022-12-18T16:29:08;-0.70;99.90
8231;DHT22;4156;50.908;6.974;2022-12-18T16:31:34;-0.70;99.90
8231;DHT22;4156;50.908;6.974;2022-12-18T16:34:18;-0.70;99.90
8231;DHT22;4156;50.908;6.974;2022-12-18T16:36:50;-0.70;99.90
8231;DHT22;4156;50.908;6.974;2022-12-18T16:39:16;-0.70;99.90
8231;DHT22;4156;50.908;6.974;2022-12-18T16:41:42;-0.70;99.90
8231;DHT22;4156;50.908;6.974;2022-12-18T16:44:07;-0.70;99.90
8231;DHT22;4156;50.908;6.974;2022-12-18T16:46:33;-0.70;99.90
8231;DHT22;4156;50.908;6.974;2022-12-18T16:48:59;-0.70;99.90
8231;DHT22;4156;50.908;6.974;2022-12-18T16:51:25;-0.70;99.90
8231;DHT22;4156;50.908;6.974;2022-12-18T16:53:52;-0.70;99.90
8231;DHT22;4156;50.908;6.974;2022-12-18T16:56:18;-0.70;99.90
8231;DHT22;4156;50.908;6.974;2022-12-18T16:58:43;-0.70;99.90
8231;DHT22;4156;50.908;6.974;2022-12-18T17:01:10;-0.70;99.90
8231;DHT22;4156;50.908;6.974;2022-12-18T17:03:35;-0.70;99.90
8231;DHT22;4156;50.908;6.974;2022-12-18T17:06:02;-0.60;99.90
8231;DHT22;4156;50.908;6.974;2022-12-18T17:08:28;-0.60;99.90
8231;DHT22;4156;50.908;6.974;2022-12-18T17:10:53;-0.70;99.90
8231;DHT22;4156;50.908;6.974;2022-12-18T17:13:19;-0.60;99.90
8231;DHT22;4156;50.908;6.974;2022-12-18T17:15:44;-0.70;99.90
8231;DHT22;4156;50.908;6.974;2022-12-18T17:18:11;-0.70;99.90
8231;DHT22;4156;50.908;6.974;2022-12-18T17:20:36;-0.70;99.90
8231;DHT22;4156;50.908;6.974;2022-12-18T17:23:03;-0.70;99.90
8231;DHT22;4156;50.908;6.974;2022-12-18T17:25:28;-0.70;99.90
8231;DHT22;4156;50.908;6.974;2022-12-18T17:27:54;-0.70;99.90
8231;DHT22;4156;50.908;6.974;2022-12-18T17:30:19;-0.70;99.90
8231;DHT22;4156;50.908;6.974;2022-12-18T17:32:45;-0.70;99.90
8231;DHT22;4156;50.908;6.974;2022-12-18T17:35:10;-0.70;99.90
8231;DHT22;4156;50.908;6.974;2022-12-18T17:37:35;-0.70;99.90
8231;DHT22;4156;50.908;6.974;2022-12-18T17:40:01;-0.70;99.90
8231;DHT22;4156;50.908;6.974;2022-12-18T17:42:27;-0.60;99.90
8231;DHT22;4156;50.908;6.974;2022-12-18T17:44:52;-0.60;99.90
8231;DHT22;4156;50.908;6.974;2022-12-18T17:47:18;-0.60;99.90
8231;DHT22;4156;50.908;6.974;2022-12-18T17:49:43;-0.60;99.90
8231;DHT22;4156;50.908;6.974;2022-12-18T17:52:09;-0.70;99.90
8231;DHT22;4156;50.908;6.974;2022-12-18T17:54:34;-0.60;99.90
8231;DHT22;4156;50.908;6.974;2022-12-18T17:57:04;-0.70;99.90
8231;DHT22;4156;50.908;6.974;2022-12-18T17:59:30;-0.60;99.90
8231;DHT22;4156;50.908;6.974;2022-12-18T18:01:55;-0.60;99.90
8231;DHT22;4156;50.908;6.974;2022-12-18T18:04:21;-0.60;99.90
8231;DHT22;4156;50.908;6.974;2022-12-18T18:06:46;-0.60;99.90